Cape Lambert — V7TC9 — position and weather

sailwx.info

Track history (hours):
 
Tides and Currents Weather Stations Pressure Air Temp Water Temp Dewpoint Dewpoint Depression Visibility Wind Speed Wind Dir Waves Ship Positions

Cape Lambert

Last reported at 2014-Nov-27 21:06 UTC. Time now 2014-Nov-28 05:50 UTC.
Position N 38°50' E 118°11'.

Length 290 m; draft 18.3 m.

Type: Cargo ship. MMSI: 538003781.

Date/timePositionNaut miles runAvg speedWind from/ knotsBaromVisibWave heightAir tempDewpointWater temp
2014-Nov-27 21:06N 38°50' E 118°11'150 6.5
2014-Nov-26 22:10N 38°25' E 121°20'710.3
2014-Nov-26 21:30N 38°21' E 121°27'2410.4
2014-Nov-26 19:13N 38°15' E 121°56'  
2014-Nov-22 08:14N 22°53' E 119°55'710.0
2014-Nov-22 07:33N 22°46' E 119°55'10 9.7
2014-Nov-22 06:30N 22°36' E 119°55'9 9.2
2014-Nov-22 05:32N 22°28' E 119°52'2010.2
2014-Nov-22 03:33N 22°13' E 119°37'1010.1
2014-Nov-22 02:31N 22°05' E 119°30'21 9.6
2014-Nov-22 00:22N 21°50' E 119°14'9 9.4
2014-Nov-21 23:27N 21°44' E 119°08'8 9.1
2014-Nov-21 22:33N 21°38' E 119°02'9 9.1
2014-Nov-21 21:33N 21°31' E 118°55'20 9.2
2014-Nov-21 19:26N 21°17' E 118°41'8 9.4
2014-Nov-21 18:33N 21°11' E 118°35'  
Track history (hours):
 
Tides and Currents Weather Stations Pressure Air Temp Water Temp Dewpoint Dewpoint Depression Visibility Wind Speed Wind Dir Waves Ship Positions

Cape Lambert

Last reported at 2014-Nov-27 21:06 UTC. Time now 2014-Nov-28 05:50 UTC.
Position N 38°50' E 118°11'.

Length 290 m; draft 18.3 m.

Type: Cargo ship. MMSI: 538003781.

Date/timePositionNaut miles runAvg speedWind from/ knotsBaromVisibWave heightAir tempDewpointWater temp
2014-Nov-27 21:06N 38°50' E 118°11'150 6.5
2014-Nov-26 22:10N 38°25' E 121°20'710.3
2014-Nov-26 21:30N 38°21' E 121°27'2410.4
2014-Nov-26 19:13N 38°15' E 121°56'  
2014-Nov-22 08:14N 22°53' E 119°55'710.0
2014-Nov-22 07:33N 22°46' E 119°55'10 9.7
2014-Nov-22 06:30N 22°36' E 119°55'9 9.2
2014-Nov-22 05:32N 22°28' E 119°52'2010.2
2014-Nov-22 03:33N 22°13' E 119°37'1010.1
2014-Nov-22 02:31N 22°05' E 119°30'21 9.6
2014-Nov-22 00:22N 21°50' E 119°14'9 9.4
2014-Nov-21 23:27N 21°44' E 119°08'8 9.1
2014-Nov-21 22:33N 21°38' E 119°02'9 9.1
2014-Nov-21 21:33N 21°31' E 118°55'20 9.2
2014-Nov-21 19:26N 21°17' E 118°41'8 9.4
2014-Nov-21 18:33N 21°11' E 118°35'  

Dump ship's entire track history